Radiance Of The Seas — C6SE7 — position and weather

sailwx.info

Track history (hours):
 
Tides and Currents Weather Stations Pressure Air Temp Water Temp Dewpoint Dewpoint Depression Visibility Wind Speed Wind Dir Waves Ship Positions

Radiance Of The Seas

Operator: Royal Caribbean Cruises Ltd

Last reported at 2019-Jul-18 06:54 UTC. Time now 2019-Jul-20 13:29 UTC.
Position N 58°19' W 136°11'.

Type: Passenger vessel. MMSI: 311319000.

Date/timePositionNaut miles runAvg speedWind from/ knotsBaromVisibWave heightAir tempDewpointWater temp
2019-Jul-18 06:54N 58°19' W 136°11'717.0
2019-Jul-18 06:30N 58°19' W 135°58'1019.0
2019-Jul-18 06:00N 58°17' W 135°40'  
2019-Jul-14 10:09N 54°40' W 131°31'315.3
2019-Jul-14 09:58N 54°38' W 131°29'714.8
2019-Jul-14 09:30N 54°32' W 131°23'815.2
2019-Jul-14 09:00N 54°26' W 131°15'815.6
2019-Jul-14 08:30N 54°19' W 131°08'714.5
2019-Jul-14 08:00N 54°13' W 131°03'815.1
2019-Jul-14 07:31N 54°06' W 131°08'815.1
2019-Jul-14 07:00N 53°59' W 131°12'714.8
2019-Jul-14 06:30N 53°51' W 131°12'714.5
2019-Jul-14 06:00N 53°44' W 131°10'814.9
2019-Jul-14 05:30N 53°37' W 131°08'815.6
2019-Jul-14 05:00N 53°29' W 131°05'1515.2
2019-Jul-14 04:03N 53°15' W 130°56'115.3
2019-Jul-14 03:59N 53°15' W 130°56'915.3
2019-Jul-14 03:26N 53°07' W 130°49'8615.6
2019-Jul-13 21:56N 51°51' W 129°44'614.9
2019-Jul-13 21:30N 51°47' W 129°35'815.7
2019-Jul-13 21:00N 51°43' W 129°25'815.7
2019-Jul-13 20:30N 51°38' W 129°15'815.1
2019-Jul-13 20:01N 51°34' W 129°05'714.7
2019-Jul-13 19:30N 51°30' W 128°55'715.0
2019-Jul-13 19:00N 51°25' W 128°46'815.5
2019-Jul-13 18:30N 51°21' W 128°36'815.6
2019-Jul-13 18:01N 51°16' W 128°26'815.4
2019-Jul-13 17:30N 51°11' W 128°16'815.7
2019-Jul-13 17:00N 51°07' W 128°06'815.3
2019-Jul-13 16:30N 51°02' W 127°56'713.3
2019-Jul-13 16:00N 50°58' W 127°47'713.8
2019-Jul-13 15:29N 50°54' W 127°38'9015.9
2019-Jul-13 09:48N 50°20' W 125°26'514.2
2019-Jul-13 09:25N 50°15' W 125°23'715.4
2019-Jul-13 09:00N 50°09' W 125°21'612.2
2019-Jul-13 08:30N 50°04' W 125°15'612.2
2019-Jul-13 08:00N 49°59' W 125°11'714.6
2019-Jul-13 07:30N 49°53' W 125°03'613.0
2019-Jul-13 07:01N 49°49' W 124°55'612.8
2019-Jul-13 06:30N 49°45' W 124°49'612.2
2019-Jul-13 06:00N 49°40' W 124°43'612.1
2019-Jul-13 05:30N 49°35' W 124°36'612.2
2019-Jul-13 05:01N 49°31' W 124°30'612.1
2019-Jul-13 04:30N 49°27' W 124°23'612.2
2019-Jul-13 04:00N 49°25' W 124°14'612.3
2019-Jul-13 03:30N 49°23' W 124°05'612.4
2019-Jul-13 03:00N 49°21' W 123°56'612.5
2019-Jul-13 02:30N 49°20' W 123°47'612.2
2019-Jul-13 02:00N 49°20' W 123°37'612.9
2019-Jul-13 01:30N 49°19' W 123°27'714.7
2019-Jul-13 01:00N 49°19' W 123°16'612.0
2019-Jul-13 00:31N 49°18' W 123°07'1 1.5
2019-Jul-12 23:49N 49°17' W 123°07'0 0.0
2019-Jul-12 23:28N 49°17' W 123°07'0 0.0
2019-Jul-12 22:58N 49°17' W 123°07'0 0.0
2019-Jul-12 22:28N 49°17' W 123°07'0 0.0
2019-Jul-12 21:58N 49°17' W 123°07'0 0.0
2019-Jul-12 21:28N 49°17' W 123°07'0 0.0
2019-Jul-12 20:52N 49°17' W 123°07'0 0.0
2019-Jul-12 20:28N 49°17' W 123°07'0 0.0
2019-Jul-12 19:55N 49°17' W 123°07'0 0.0
2019-Jul-12 19:28N 49°17' W 123°07'0 0.0
2019-Jul-12 18:55N 49°17' W 123°07'0 0.0
2019-Jul-12 18:28N 49°17' W 123°07'0 0.0
2019-Jul-12 17:58N 49°17' W 123°07'0 0.0
2019-Jul-12 17:28N 49°17' W 123°07'0 0.0
2019-Jul-12 16:55N 49°17' W 123°07'0 0.0
2019-Jul-12 16:28N 49°17' W 123°07'0 0.0
2019-Jul-12 15:58N 49°17' W 123°07'0 0.0
2019-Jul-12 15:28N 49°17' W 123°07'0 0.0
2019-Jul-12 14:58N 49°17' W 123°07'0 0.0
2019-Jul-12 14:28N 49°17' W 123°07'0 0.0
2019-Jul-12 14:00N 49°17' W 123°07'2 4.3
2019-Jul-12 13:30N 49°19' W 123°09'5 9.8
2019-Jul-12 13:00N 49°19' W 123°16'5 9.9
2019-Jul-12 12:30N 49°19' W 123°24'510.2
2019-Jul-12 12:00N 49°19' W 123°32'510.2
2019-Jul-12 11:30N 49°19' W 123°39'510.5
2019-Jul-12 11:00N 49°20' W 123°47'510.5
2019-Jul-12 10:30N 49°21' W 123°55'510.7
2019-Jul-12 10:00N 49°22' W 124°03'610.8
2019-Jul-12 09:29N 49°24' W 124°11'510.0
2019-Jul-12 09:00N 49°25' W 124°19'5 9.7
2019-Jul-12 08:29N 49°27' W 124°25'7 9.7
2019-Jul-12 07:46N 49°32' W 124°33'3 9.9
2019-Jul-12 07:30N 49°34' W 124°36'510.4
2019-Jul-12 07:00N 49°38' W 124°41'510.4
2019-Jul-12 06:30N 49°42' W 124°47'510.5
2019-Jul-12 06:00N 49°46' W 124°52'510.6
2019-Jul-12 05:30N 49°50' W 124°58'510.5
2019-Jul-12 05:00N 49°53' W 125°03'510.4
2019-Jul-12 04:28N 49°57' W 125°09'613.2
2019-Jul-12 04:01N 50°03' W 125°14'713.5
2019-Jul-12 03:30N 50°08' W 125°21'815.6
2019-Jul-12 02:59N 50°16' W 125°24'9716.5
2019-Jul-11 21:05N 50°56' W 127°42'117.0
2019-Jul-11 21:00N 50°57' W 127°44'713.7
2019-Jul-11 20:30N 51°01' W 127°54'917.5
2019-Jul-11 20:00N 51°05' W 128°05'917.3
2019-Jul-11 19:31N 51°11' W 128°16'917.5
2019-Jul-11 19:00N 51°16' W 128°27'917.8
2019-Jul-11 18:31N 51°21' W 128°38'918.2
2019-Jul-11 18:00N 51°27' W 128°50'917.9
2019-Jul-11 17:30N 51°32' W 129°02'918.2
2019-Jul-11 17:00N 51°38' W 129°14'918.2
2019-Jul-11 16:30N 51°43' W 129°26'917.7
2019-Jul-11 15:59N 51°48' W 129°38'9817.1
2019-Jul-11 10:16N 53°14' W 130°54'1117.6
2019-Jul-11 09:39N 53°24' W 131°02'317.9
2019-Jul-11 09:30N 53°26' W 131°04'917.9
2019-Jul-11 09:00N 53°35' W 131°07'917.6
2019-Jul-11 08:31N 53°44' W 131°10'917.3
2019-Jul-11 08:00N 53°52' W 131°12'816.8
2019-Jul-11 07:31N 54°01' W 131°11'816.0
2019-Jul-11 07:01N 54°08' W 131°06'815.6
2019-Jul-11 06:30N 54°16' W 131°03'815.5
2019-Jul-11 06:00N 54°23' W 131°11'816.7
2019-Jul-11 05:30N 54°29' W 131°19'917.3
2019-Jul-11 05:00N 54°37' W 131°28'250 5.8
2019-Jul-09 09:46N 58°09' W 135°25'  
Track history (hours):
 
Tides and Currents Weather Stations Pressure Air Temp Water Temp Dewpoint Dewpoint Depression Visibility Wind Speed Wind Dir Waves Ship Positions

Radiance Of The Seas

Operator: Royal Caribbean Cruises Ltd

Last reported at 2019-Jul-18 06:54 UTC. Time now 2019-Jul-20 13:29 UTC.
Position N 58°19' W 136°11'.

Type: Passenger vessel. MMSI: 311319000.

Date/timePositionNaut miles runAvg speedWind from/ knotsBaromVisibWave heightAir tempDewpointWater temp
2019-Jul-18 06:54N 58°19' W 136°11'717.0
2019-Jul-18 06:30N 58°19' W 135°58'1019.0
2019-Jul-18 06:00N 58°17' W 135°40'  
2019-Jul-14 10:09N 54°40' W 131°31'315.3
2019-Jul-14 09:58N 54°38' W 131°29'714.8
2019-Jul-14 09:30N 54°32' W 131°23'815.2
2019-Jul-14 09:00N 54°26' W 131°15'815.6
2019-Jul-14 08:30N 54°19' W 131°08'714.5
2019-Jul-14 08:00N 54°13' W 131°03'815.1
2019-Jul-14 07:31N 54°06' W 131°08'815.1
2019-Jul-14 07:00N 53°59' W 131°12'714.8
2019-Jul-14 06:30N 53°51' W 131°12'714.5
2019-Jul-14 06:00N 53°44' W 131°10'814.9
2019-Jul-14 05:30N 53°37' W 131°08'815.6
2019-Jul-14 05:00N 53°29' W 131°05'1515.2
2019-Jul-14 04:03N 53°15' W 130°56'115.3
2019-Jul-14 03:59N 53°15' W 130°56'915.3
2019-Jul-14 03:26N 53°07' W 130°49'8615.6
2019-Jul-13 21:56N 51°51' W 129°44'614.9
2019-Jul-13 21:30N 51°47' W 129°35'815.7
2019-Jul-13 21:00N 51°43' W 129°25'815.7
2019-Jul-13 20:30N 51°38' W 129°15'815.1
2019-Jul-13 20:01N 51°34' W 129°05'714.7
2019-Jul-13 19:30N 51°30' W 128°55'715.0
2019-Jul-13 19:00N 51°25' W 128°46'815.5
2019-Jul-13 18:30N 51°21' W 128°36'815.6
2019-Jul-13 18:01N 51°16' W 128°26'815.4
2019-Jul-13 17:30N 51°11' W 128°16'815.7
2019-Jul-13 17:00N 51°07' W 128°06'815.3
2019-Jul-13 16:30N 51°02' W 127°56'713.3
2019-Jul-13 16:00N 50°58' W 127°47'713.8
2019-Jul-13 15:29N 50°54' W 127°38'9015.9
2019-Jul-13 09:48N 50°20' W 125°26'514.2
2019-Jul-13 09:25N 50°15' W 125°23'715.4
2019-Jul-13 09:00N 50°09' W 125°21'612.2
2019-Jul-13 08:30N 50°04' W 125°15'612.2
2019-Jul-13 08:00N 49°59' W 125°11'714.6
2019-Jul-13 07:30N 49°53' W 125°03'613.0
2019-Jul-13 07:01N 49°49' W 124°55'612.8
2019-Jul-13 06:30N 49°45' W 124°49'612.2
2019-Jul-13 06:00N 49°40' W 124°43'612.1
2019-Jul-13 05:30N 49°35' W 124°36'612.2
2019-Jul-13 05:01N 49°31' W 124°30'612.1
2019-Jul-13 04:30N 49°27' W 124°23'612.2
2019-Jul-13 04:00N 49°25' W 124°14'612.3
2019-Jul-13 03:30N 49°23' W 124°05'612.4
2019-Jul-13 03:00N 49°21' W 123°56'612.5
2019-Jul-13 02:30N 49°20' W 123°47'612.2
2019-Jul-13 02:00N 49°20' W 123°37'612.9
2019-Jul-13 01:30N 49°19' W 123°27'714.7
2019-Jul-13 01:00N 49°19' W 123°16'612.0
2019-Jul-13 00:31N 49°18' W 123°07'1 1.5
2019-Jul-12 23:49N 49°17' W 123°07'0 0.0
2019-Jul-12 23:28N 49°17' W 123°07'0 0.0
2019-Jul-12 22:58N 49°17' W 123°07'0 0.0
2019-Jul-12 22:28N 49°17' W 123°07'0 0.0
2019-Jul-12 21:58N 49°17' W 123°07'0 0.0
2019-Jul-12 21:28N 49°17' W 123°07'0 0.0
2019-Jul-12 20:52N 49°17' W 123°07'0 0.0
2019-Jul-12 20:28N 49°17' W 123°07'0 0.0
2019-Jul-12 19:55N 49°17' W 123°07'0 0.0
2019-Jul-12 19:28N 49°17' W 123°07'0 0.0
2019-Jul-12 18:55N 49°17' W 123°07'0 0.0
2019-Jul-12 18:28N 49°17' W 123°07'0 0.0
2019-Jul-12 17:58N 49°17' W 123°07'0 0.0
2019-Jul-12 17:28N 49°17' W 123°07'0 0.0
2019-Jul-12 16:55N 49°17' W 123°07'0 0.0
2019-Jul-12 16:28N 49°17' W 123°07'0 0.0
2019-Jul-12 15:58N 49°17' W 123°07'0 0.0
2019-Jul-12 15:28N 49°17' W 123°07'0 0.0
2019-Jul-12 14:58N 49°17' W 123°07'0 0.0
2019-Jul-12 14:28N 49°17' W 123°07'0 0.0
2019-Jul-12 14:00N 49°17' W 123°07'2 4.3
2019-Jul-12 13:30N 49°19' W 123°09'5 9.8
2019-Jul-12 13:00N 49°19' W 123°16'5 9.9
2019-Jul-12 12:30N 49°19' W 123°24'510.2
2019-Jul-12 12:00N 49°19' W 123°32'510.2
2019-Jul-12 11:30N 49°19' W 123°39'510.5
2019-Jul-12 11:00N 49°20' W 123°47'510.5
2019-Jul-12 10:30N 49°21' W 123°55'510.7
2019-Jul-12 10:00N 49°22' W 124°03'610.8
2019-Jul-12 09:29N 49°24' W 124°11'510.0
2019-Jul-12 09:00N 49°25' W 124°19'5 9.7
2019-Jul-12 08:29N 49°27' W 124°25'7 9.7
2019-Jul-12 07:46N 49°32' W 124°33'3 9.9
2019-Jul-12 07:30N 49°34' W 124°36'510.4
2019-Jul-12 07:00N 49°38' W 124°41'510.4
2019-Jul-12 06:30N 49°42' W 124°47'510.5
2019-Jul-12 06:00N 49°46' W 124°52'510.6
2019-Jul-12 05:30N 49°50' W 124°58'510.5
2019-Jul-12 05:00N 49°53' W 125°03'510.4
2019-Jul-12 04:28N 49°57' W 125°09'613.2
2019-Jul-12 04:01N 50°03' W 125°14'713.5
2019-Jul-12 03:30N 50°08' W 125°21'815.6
2019-Jul-12 02:59N 50°16' W 125°24'9716.5
2019-Jul-11 21:05N 50°56' W 127°42'117.0
2019-Jul-11 21:00N 50°57' W 127°44'713.7
2019-Jul-11 20:30N 51°01' W 127°54'917.5
2019-Jul-11 20:00N 51°05' W 128°05'917.3
2019-Jul-11 19:31N 51°11' W 128°16'917.5
2019-Jul-11 19:00N 51°16' W 128°27'917.8
2019-Jul-11 18:31N 51°21' W 128°38'918.2
2019-Jul-11 18:00N 51°27' W 128°50'917.9
2019-Jul-11 17:30N 51°32' W 129°02'918.2
2019-Jul-11 17:00N 51°38' W 129°14'918.2
2019-Jul-11 16:30N 51°43' W 129°26'917.7
2019-Jul-11 15:59N 51°48' W 129°38'9817.1
2019-Jul-11 10:16N 53°14' W 130°54'1117.6
2019-Jul-11 09:39N 53°24' W 131°02'317.9
2019-Jul-11 09:30N 53°26' W 131°04'917.9
2019-Jul-11 09:00N 53°35' W 131°07'917.6
2019-Jul-11 08:31N 53°44' W 131°10'917.3
2019-Jul-11 08:00N 53°52' W 131°12'816.8
2019-Jul-11 07:31N 54°01' W 131°11'816.0
2019-Jul-11 07:01N 54°08' W 131°06'815.6
2019-Jul-11 06:30N 54°16' W 131°03'815.5
2019-Jul-11 06:00N 54°23' W 131°11'816.7
2019-Jul-11 05:30N 54°29' W 131°19'917.3
2019-Jul-11 05:00N 54°37' W 131°28'250 5.8
2019-Jul-09 09:46N 58°09' W 135°25'  

Dump ship's entire track history